Meteo Giornale » Osservazioni meteo Italia » Cagliari-Elmas

ore: 21:20 - Osservazioni Meteo Cagliari-Elmas
Lat. 39° 15' N Lon. 9° 4' E Alt. 4 metri s.l.m.

sereno Europe/Rome

14 °C

Sereno

Temp. 24 Ore

4 °C

19 °C

Nord

3.7 Km/h

Dew point 9 °C

Umidità 71 %

Visibilità  10 Km

Il sole sorge alle ore 06:33

Il sole tramonta alle ore 20:10

Data e Ora Cielo e Fenomeni T °C DP °C Um. % Pres. hPa Vis. km Vento km/h
Oggi h: 21:20 sereno Sereno 14 9 71 1019 10 N 3.7
Oggi h: 20:50 sereno Sereno 15 9 67 1018 10 SE 7.4
Oggi h: 20:20 sereno Sereno 15 9 67 1018 10 SE 9.3
Oggi h: 19:50 sereno Sereno 16 9 63 1018 10 S/SE 11.1
Oggi h: 19:20 sereno Sereno 16 9 63 1018 10 SE 13
Oggi h: 18:50 sereno Sereno 17 9 59 1018 10 SE 18.5
Oggi h: 18:20 sereno Sereno 17 8 55 1018 10 SE 16.7
Oggi h: 17:50 sereno Sereno 18 9 55 1018 10 SE 18.5
Oggi h: 16:20 sereno Sereno 19 7 45 1018 10 S/SE 16.7
Oggi h: 15:50 sereno Sereno 19 7 45 1019 10 S/SE 16.7
Oggi h: 15:20 sereno Sereno 19 2 32 1019 10 S/SE 14.8
Oggi h: 14:20 sereno Sereno 19 1 29 1019 10 S/SE 16.7
Oggi h: 13:50 sereno Sereno 19 3 34 1019 10 S/SE 14.8
Oggi h: 13:20 sereno Sereno 19 3 34 1019 10 S 9.3
Oggi h: 12:50 sereno Sereno 19 3 34 1020 10 S 11.1
Oggi h: 12:20 sereno Sereno 18 -2 25 1020 10 S 7.4
Oggi h: 11:50 sereno Sereno 17 1 33 1020 10 S/SO 7.4
Oggi h: 11:20 sereno Sereno 17 1 33 1020 10 S/SO 7.4
Oggi h: 10:20 sereno Sereno 14 6 58 1020 10 N 5.5
Oggi h: 09:50 sereno Sereno 13 5 58 1020 10 O/NO 7.4
Oggi h: 09:20 sereno Sereno 12 6 66 1020 10 O/NO 7.4
Oggi h: 08:50 sereno Sereno 10 6 76 1020 10 NO 9.3
Oggi h: 08:20 sereno Sereno 8 5 81 1020 10 N/NO 7.4
Oggi h: 07:50 sereno Sereno 6 4 86 1020 10 N/NO 7.4
Oggi h: 07:20 sereno Sereno 5 3 86 1020 10 NO 7.4
Oggi h: 06:50 sereno Sereno 5 3 86 1020 10 N/NO 7.4
Oggi h: 06:20 sereno Sereno 4 3 93 1020 10 N 9.3
Oggi h: 05:50 sereno Sereno 4 2 86 1020 10 N/NO 13
Oggi h: 05:20 sereno Sereno 5 3 86 1020 10 N/NO 9.3
Oggi h: 04:50 sereno Sereno 5 3 86 1020 10 N/NO 13
Oggi h: 04:20 sereno Sereno 6 4 86 1020 10 NO 11.1
Oggi h: 03:50 sereno Sereno 6 4 86 1021 10 NO 13
Oggi h: 03:20 sereno Sereno 7 5 87 1021 10 NO 11.1
Oggi h: 02:50 sereno Sereno 6 4 86 1021 10 NO 9.3
Oggi h: 02:20 sereno Sereno 7 5 87 1022 10 NO 11.1
Oggi h: 01:20 sereno Sereno 8 5 81 1022 10 NO 11.1
Oggi h: 00:50 sereno Sereno 10 5 71 1022 10 NO 7.4
Oggi h: 00:20 sereno Sereno 10 5 71 1022 10 N 5.5
Ieri h: 23:50 sereno Sereno 11 5 66 1022 10 N/NE 11.1
Ieri h: 23:20 sereno Sereno 11 5 66 1023 10 N 11.1
Ieri h: 22:50 sereno Sereno 12 4 57 1023 10 N 9.3
Ieri h: 22:20 sereno Sereno 12 4 57 1023 10 N 13
Ieri h: 21:50 sereno Sereno 13 4 54 1023 10 N 13